Time;durP1;ratioP1;P1;durP2;ratioP2;P2;SDS_P1;SDS_P2;PMS_P1;PMS_P2;Temp;Humidity;BMP_temperature;BMP_pressure;BME280_temperature;BME280_humidity;BME280_pressure;Samples;Min_cycle;Max_cycle;Signal;HPM_P1;HPM_P2
2021/11/10 00:01:38;;;;;;;0.00;0.00;;;3.40;57.40;;;;;;5016591;28;20441;-88
2021/11/10 00:04:04;;;;;;;0.00;0.00;;;3.30;57.40;;;;;;5017025;28;20153;-88
2021/11/10 00:06:30;;;;;;;0.00;0.00;;;3.30;57.60;;;;;;5017606;28;20033;-88
2021/11/10 00:08:57;;;;;;;0.00;0.00;;;3.30;57.80;;;;;;5016665;28;20355;-89
2021/11/10 00:11:22;;;;;;;0.00;0.00;;;3.30;57.90;;;;;;5032262;28;20144;-89
2021/11/10 00:13:48;;;;;;;0.00;0.00;;;3.20;57.90;;;;;;5016909;28;20505;-88
2021/11/10 00:16:14;;;;;;;0.00;0.00;;;3.30;58.60;;;;;;5031762;28;20026;-89
2021/11/10 00:18:40;;;;;;;0.00;0.00;;;3.30;58.70;;;;;;5016331;28;20118;-88
2021/11/10 00:21:06;;;;;;;0.00;0.00;;;3.20;58.60;;;;;;5016685;28;20481;-88
2021/11/10 00:23:33;;;;;;;0.00;0.00;;;3.20;58.60;;;;;;5015681;28;20081;-88
2021/11/10 00:25:58;;;;;;;0.00;0.00;;;3.20;58.70;;;;;;5016937;28;20079;-88
2021/11/10 00:28:24;;;;;;;0.00;0.00;;;3.20;58.70;;;;;;5016243;28;20448;-88
2021/11/10 00:30:50;;;;;;;0.00;0.00;;;3.10;58.70;;;;;;5015733;28;20359;-88
2021/11/10 00:33:16;;;;;;;0.00;0.00;;;3.10;58.70;;;;;;5016025;28;20033;-88
2021/11/10 00:35:42;;;;;;;0.00;0.00;;;3.10;58.80;;;;;;5015645;28;20470;-88
2021/11/10 00:38:09;;;;;;;0.00;0.00;;;3.10;58.90;;;;;;5015897;28;20029;-88
2021/11/10 00:40:35;;;;;;;0.00;0.00;;;3.10;58.90;;;;;;5015978;28;20049;-88
2021/11/10 00:43:00;;;;;;;0.00;0.00;;;3.10;58.90;;;;;;5015334;28;20033;-88
2021/11/10 00:45:26;;;;;;;0.00;0.00;;;3.10;59.00;;;;;;5015276;28;20113;-88
2021/11/10 00:47:52;;;;;;;0.00;0.00;;;3.00;59.10;;;;;;5016131;28;20026;-88
2021/11/10 00:50:17;;;;;;;0.00;0.00;;;3.00;59.10;;;;;;5016179;28;20057;-88
2021/11/10 00:52:43;;;;;;;0.00;0.00;;;3.00;59.20;;;;;;5014325;28;20026;-88
2021/11/10 00:55:09;;;;;;;0.00;0.00;;;3.00;59.80;;;;;;5014983;28;20402;-88
2021/11/10 00:57:35;;;;;;;0.00;0.00;;;3.00;60.10;;;;;;5015124;28;20386;-89
2021/11/10 01:00:01;;;;;;;0.00;0.00;;;3.00;59.90;;;;;;5015017;28;20069;-89
2021/11/10 01:02:27;;;;;;;0.00;0.00;;;3.00;59.90;;;;;;5014977;28;20037;-88
2021/11/10 01:04:52;;;;;;;0.00;0.00;;;3.00;60.00;;;;;;5015307;28;20061;-88
2021/11/10 01:07:18;;;;;;;0.00;0.00;;;2.90;59.90;;;;;;5015097;28;20026;-89
2021/11/10 01:09:47;;;;;;;0.00;0.00;;;2.90;60.00;;;;;;5015016;28;20480;-87
2021/11/10 01:12:13;;;;;;;0.00;0.00;;;2.90;60.00;;;;;;5015112;28;20026;-88
2021/11/10 01:14:41;;;;;;;0.00;0.00;;;2.90;60.00;;;;;;5015273;28;20117;-88
2021/11/10 01:17:08;;;;;;;0.00;0.00;;;2.90;60.10;;;;;;5014566;28;20385;-88
2021/11/10 01:19:34;;;;;;;0.00;0.00;;;2.90;60.10;;;;;;5013600;28;20026;-88
2021/11/10 01:22:00;;;;;;;0.00;0.00;;;2.90;60.20;;;;;;5014775;28;20100;-88
2021/11/10 01:24:26;;;;;;;0.00;0.00;;;2.80;60.20;;;;;;5029854;28;20489;-88
2021/11/10 01:26:51;;;;;;;0.00;0.00;;;2.80;60.30;;;;;;5014290;28;20109;-87
2021/11/10 01:29:17;;;;;;;0.00;0.00;;;2.80;60.40;;;;;;5014459;28;20030;-88
2021/11/10 01:31:43;;;;;;;0.00;0.00;;;2.80;60.50;;;;;;5014254;28;20080;-88
2021/11/10 01:34:08;;;;;;;0.00;0.00;;;2.80;60.50;;;;;;5014035;28;20080;-88
2021/11/10 01:36:36;;;;;;;0.00;0.00;;;2.80;60.60;;;;;;5014218;28;20029;-88
2021/11/10 01:39:04;;;;;;;0.22;0.00;;;2.70;60.60;;;;;;5029272;28;20026;-88
2021/11/10 01:41:30;;;;;;;0.00;0.00;;;2.70;60.60;;;;;;5014308;28;20022;-88
2021/11/10 01:43:55;;;;;;;0.00;0.00;;;2.70;60.80;;;;;;5013808;28;20025;-88
2021/11/10 01:46:21;;;;;;;0.00;0.00;;;2.70;60.90;;;;;;5014074;28;20034;-87
2021/11/10 01:48:47;;;;;;;0.00;0.00;;;2.70;60.90;;;;;;5013961;28;20033;-88
2021/11/10 01:51:13;;;;;;;0.00;0.00;;;2.60;60.90;;;;;;5013729;28;20026;-88
2021/11/10 01:53:38;;;;;;;0.00;0.00;;;2.60;61.00;;;;;;5013910;28;20462;-87
2021/11/10 01:56:04;;;;;;;0.00;0.00;;;2.60;61.10;;;;;;5014039;28;20022;-87
2021/11/10 01:58:31;;;;;;;0.00;0.00;;;2.60;61.10;;;;;;5013676;28;20022;-88
2021/11/10 02:00:57;;;;;;;0.00;0.00;;;2.60;61.20;;;;;;5013911;28;20112;-87
2021/11/10 02:03:23;;;;;;;0.00;0.00;;;2.60;61.30;;;;;;5013838;28;20060;-87
2021/11/10 02:05:50;;;;;;;0.00;0.00;;;2.60;61.40;;;;;;5014192;28;20029;-87
2021/11/10 02:08:16;;;;;;;0.00;0.00;;;2.60;61.40;;;;;;5013943;28;20057;-88
2021/11/10 02:10:42;;;;;;;0.00;0.00;;;2.50;61.40;;;;;;5013560;28;20362;-87
2021/11/10 02:13:08;;;;;;;0.00;0.00;;;2.50;61.60;;;;;;5013916;28;20041;-87
2021/11/10 02:15:34;;;;;;;0.00;0.00;;;2.50;61.70;;;;;;5013852;28;20022;-88
2021/11/10 02:18:02;;;;;;;0.00;0.00;;;2.50;61.80;;;;;;5014031;28;20030;-88
2021/11/10 02:20:33;;;;;;;0.00;0.00;;;2.50;61.80;;;;;;5013776;28;20034;-88
2021/11/10 02:23:00;;;;;;;0.00;0.00;;;2.50;61.90;;;;;;5012537;28;20121;-87
2021/11/10 02:25:29;;;;;;;0.10;0.00;;;2.50;62.00;;;;;;5013780;28;20057;-85
2021/11/10 02:27:56;;;;;;;0.00;0.00;;;2.50;62.00;;;;;;5013848;28;20030;-86
2021/11/10 02:30:23;;;;;;;0.00;0.00;;;2.50;62.00;;;;;;5028604;28;20038;-86
2021/11/10 02:33:02;;;;;;;0.00;0.00;;;2.50;62.10;;;;;;5013457;28;20022;-86
2021/11/10 02:35:29;;;;;;;0.00;0.00;;;2.50;62.10;;;;;;5014121;28;20488;-85
2021/11/10 02:38:05;;;;;;;0.00;0.00;;;2.40;62.60;;;;;;5013471;28;20061;-86
2021/11/10 02:40:31;;;;;;;0.00;0.00;;;2.50;62.70;;;;;;5013768;28;20052;-86
2021/11/10 02:42:57;;;;;;;0.00;0.00;;;2.50;62.50;;;;;;5013590;28;20026;-86
2021/11/10 02:45:24;;;;;;;0.00;0.00;;;2.50;62.40;;;;;;5013595;28;20033;-86
2021/11/10 02:47:51;;;;;;;0.00;0.00;;;2.40;62.40;;;;;;5013515;28;20033;-86
2021/11/10 02:50:16;;;;;;;0.00;0.00;;;2.40;62.50;;;;;;5013883;28;20029;-86
2021/11/10 02:52:42;;;;;;;0.00;0.00;;;2.40;62.50;;;;;;5013489;28;20374;-86
2021/11/10 02:55:09;;;;;;;0.00;0.00;;;2.40;62.60;;;;;;5013981;28;20132;-86
2021/11/10 02:57:35;;;;;;;0.00;0.00;;;2.40;62.70;;;;;;5013211;28;20037;-86
2021/11/10 03:00:03;;;;;;;0.00;0.00;;;2.40;62.80;;;;;;5013548;28;20072;-86
2021/11/10 03:02:31;;;;;;;0.00;0.00;;;2.40;62.80;;;;;;5013350;28;20087;-86
2021/11/10 03:04:58;;;;;;;0.00;0.00;;;2.40;62.80;;;;;;5012476;28;20061;-86
2021/11/10 03:07:23;;;;;;;0.00;0.00;;;2.40;62.80;;;;;;5013369;28;20022;-86
2021/11/10 03:09:50;;;;;;;0.00;0.00;;;2.40;62.80;;;;;;5013058;28;20037;-86
2021/11/10 03:12:17;;;;;;;0.00;0.00;;;2.40;62.80;;;;;;5013653;28;20033;-86
2021/11/10 03:14:44;;;;;;;0.00;0.00;;;2.50;62.80;;;;;;5013258;28;20022;-86
2021/11/10 03:17:14;;;;;;;0.00;0.00;;;2.40;62.80;;;;;;5013273;28;20026;-86
2021/11/10 03:19:40;;;;;;;0.00;0.00;;;2.40;62.80;;;;;;5016485;28;20112;-86
2021/11/10 03:22:09;;;;;;;0.00;0.00;;;2.40;62.80;;;;;;5016792;28;20034;-86
2021/11/10 03:24:35;;;;;;;0.00;0.00;;;2.40;62.80;;;;;;5016961;28;20089;-86
2021/11/10 03:27:01;;;;;;;0.00;0.00;;;2.40;62.90;;;;;;5016943;28;20528;-86
2021/11/10 03:29:29;;;;;;;0.00;0.00;;;2.40;62.90;;;;;;5016481;28;20017;-86
2021/11/10 03:31:55;;;;;;;0.00;0.00;;;2.40;62.90;;;;;;5016577;28;20438;-86
2021/11/10 03:34:21;;;;;;;0.00;0.00;;;2.40;63.00;;;;;;5016493;28;20050;-86
2021/11/10 03:36:47;;;;;;;0.00;0.00;;;2.40;63.00;;;;;;5032032;28;20379;-87
2021/11/10 03:39:18;;;;;;;0.00;0.00;;;2.40;63.10;;;;;;5015018;28;20049;-86
2021/11/10 03:41:44;;;;;;;0.00;0.00;;;2.30;63.20;;;;;;5016461;28;20429;-86
2021/11/10 03:44:10;;;;;;;0.00;0.00;;;2.40;63.20;;;;;;5016185;28;20034;-86
2021/11/10 03:46:37;;;;;;;0.00;0.00;;;2.30;63.20;;;;;;5031628;28;20026;-86
2021/11/10 03:49:04;;;;;;;0.00;0.00;;;2.30;63.30;;;;;;5016438;28;20026;-86
2021/11/10 03:51:30;;;;;;;0.00;0.00;;;2.30;63.30;;;;;;5016649;28;20033;-86
2021/11/10 03:53:56;;;;;;;0.00;0.00;;;2.30;63.40;;;;;;5014915;28;20117;-86
2021/11/10 03:56:22;;;;;;;0.00;0.00;;;2.30;63.50;;;;;;5016245;28;20034;-86
2021/11/10 03:58:48;;;;;;;0.00;0.00;;;2.30;63.50;;;;;;5016667;28;20466;-86
2021/11/10 04:01:13;;;;;;;0.00;0.00;;;2.30;63.50;;;;;;5016214;28;20068;-86
2021/11/10 04:03:40;;;;;;;0.00;0.00;;;2.30;63.50;;;;;;5016043;28;20371;-86
2021/11/10 04:06:06;;;;;;;0.00;0.00;;;2.30;63.60;;;;;;5016128;28;20036;-86
2021/11/10 04:08:32;;;;;;;0.00;0.00;;;2.30;63.50;;;;;;5016171;28;20378;-86
2021/11/10 04:11:00;;;;;;;0.00;0.00;;;2.30;63.50;;;;;;5016282;28;20033;-86
2021/11/10 04:13:30;;;;;;;0.00;0.00;;;2.30;63.50;;;;;;5014827;28;20030;-86
2021/11/10 04:15:56;;;;;;;0.00;0.00;;;2.30;63.60;;;;;;5015947;28;20386;-86
2021/11/10 04:18:22;;;;;;;0.00;0.00;;;2.30;63.60;;;;;;5015751;28;20042;-86
2021/11/10 04:20:48;;;;;;;0.00;0.00;;;2.30;63.60;;;;;;5015856;28;20487;-86
2021/11/10 04:23:14;;;;;;;0.00;0.00;;;2.30;63.70;;;;;;5015834;28;20065;-86
2021/11/10 04:25:39;;;;;;;0.00;0.00;;;2.30;63.70;;;;;;5015384;28;20026;-86
2021/11/10 04:28:05;;;;;;;0.00;0.00;;;2.30;63.80;;;;;;5015775;28;20037;-86
2021/11/10 04:30:32;;;;;;;0.00;0.00;;;2.30;63.70;;;;;;5014714;28;20096;-86
2021/11/10 04:32:59;;;;;;;0.00;0.00;;;2.30;63.80;;;;;;5015547;28;20033;-86
2021/11/10 04:35:25;;;;;;;0.00;0.00;;;2.30;63.80;;;;;;5015210;28;20428;-86
2021/11/10 04:37:51;;;;;;;0.00;0.00;;;2.30;63.80;;;;;;5015166;28;20489;-86
2021/11/10 04:40:16;;;;;;;0.00;0.00;;;2.30;63.80;;;;;;5014983;28;20050;-86
2021/11/10 04:42:43;;;;;;;0.00;0.00;;;2.20;63.80;;;;;;5015662;28;20030;-86
2021/11/10 04:45:15;;;;;;;0.00;0.00;;;2.20;63.80;;;;;;5015461;28;20113;-86
2021/11/10 04:47:41;;;;;;;0.00;0.00;;;2.20;63.80;;;;;;5014656;28;20421;-86
2021/11/10 04:50:08;;;;;;;0.00;0.00;;;2.20;63.90;;;;;;5015357;28;20022;-86
2021/11/10 04:52:36;;;;;;;0.00;0.00;;;2.20;63.80;;;;;;5015125;28;20033;-86
2021/11/10 04:55:03;;;;;;;0.00;0.00;;;2.20;63.90;;;;;;5015209;28;20490;-86
2021/11/10 04:57:30;;;;;;;0.00;0.00;;;2.20;64.00;;;;;;5015629;28;20037;-86
2021/11/10 04:59:55;;;;;;;0.00;0.00;;;2.20;64.00;;;;;;5014971;28;20097;-86
2021/11/10 05:02:24;;;;;;;0.00;0.00;;;2.20;64.00;;;;;;5014879;28;20121;-86
2021/11/10 05:04:51;;;;;;;0.00;0.00;;;2.20;64.10;;;;;;5014906;28;20041;-86
2021/11/10 05:07:18;;;;;;;0.00;0.00;;;2.20;64.10;;;;;;5014985;28;20030;-86
2021/11/10 05:09:44;;;;;;;0.00;0.00;;;2.30;64.20;;;;;;5015289;28;20105;-87
2021/11/10 05:12:09;;;;;;;0.00;0.00;;;2.30;64.10;;;;;;5018536;28;20036;-86
2021/11/10 05:14:35;;;;;;;0.00;0.00;;;2.30;64.10;;;;;;5016441;28;20026;-86
2021/11/10 05:17:01;;;;;;;0.00;0.00;;;2.30;64.10;;;;;;5015705;28;20037;-93
2021/11/10 05:19:27;;;;;;;0.00;0.00;;;2.40;64.20;;;;;;5021848;28;20033;-89
2021/11/10 05:21:53;;;;;;;0.00;0.00;;;2.40;64.10;;;;;;5023091;28;20054;-92
2021/11/10 05:24:18;;;;;;;0.00;0.00;;;2.50;64.00;;;;;;5022916;28;20459;-89
2021/11/10 05:26:44;;;;;;;0.00;0.00;;;2.50;64.00;;;;;;5016620;28;20425;-89
2021/11/10 05:29:10;;;;;;;0.00;0.00;;;2.60;64.00;;;;;;5018227;28;20025;-88
2021/11/10 05:31:36;;;;;;;0.00;0.00;;;2.60;64.00;;;;;;5036741;28;20033;-90
2021/11/10 05:34:03;;;;;;;0.00;0.00;;;2.70;63.90;;;;;;5035718;28;20030;-88
2021/11/10 05:36:29;;;;;;;0.00;0.00;;;2.80;63.80;;;;;;5034886;28;20121;-89
2021/11/10 05:38:55;;;;;;;0.00;0.00;;;2.80;63.70;;;;;;5035063;28;20060;-88
2021/11/10 05:41:21;;;;;;;0.00;0.00;;;2.90;63.80;;;;;;5050560;28;20026;-89
2021/11/10 05:43:46;;;;;;;0.00;0.00;;;2.90;63.70;;;;;;5034819;28;20029;-89
2021/11/10 05:46:12;;;;;;;0.00;0.00;;;2.90;63.60;;;;;;5050572;28;20022;-89
2021/11/10 05:48:38;;;;;;;0.00;0.00;;;3.00;63.60;;;;;;5039434;28;20030;-89
2021/11/10 05:51:04;;;;;;;0.00;0.00;;;3.00;63.60;;;;;;5037021;28;20026;-89
2021/11/10 05:53:32;;;;;;;0.00;0.00;;;3.10;63.50;;;;;;5051226;28;20390;-88
2021/11/10 05:55:57;;;;;;;0.00;0.00;;;3.20;63.50;;;;;;5035721;28;20441;-87
2021/11/10 05:58:25;;;;;;;0.00;0.00;;;3.20;63.30;;;;;;5027926;28;20026;-90
2021/11/10 06:00:51;;;;;;;0.00;0.00;;;3.30;63.30;;;;;;5013628;28;20363;-88
2021/11/10 06:03:18;;;;;;;0.00;0.00;;;3.30;63.30;;;;;;5014010;28;20049;-88
2021/11/10 06:05:44;;;;;;;0.05;0.03;;;3.40;63.30;;;;;;5013805;28;20097;-87
2021/11/10 06:08:10;;;;;;;0.00;0.00;;;3.40;63.20;;;;;;5013764;28;20026;-88
2021/11/10 06:10:36;;;;;;;0.00;0.00;;;3.50;63.20;;;;;;5014996;28;20397;-88
2021/11/10 06:13:02;;;;;;;0.00;0.00;;;3.60;63.00;;;;;;5014232;28;20034;-88
2021/11/10 06:15:28;;;;;;;0.00;0.00;;;3.70;63.00;;;;;;5014237;28;20022;-88
2021/11/10 06:17:53;;;;;;;0.00;0.00;;;3.80;62.90;;;;;;5014056;28;20060;-88
2021/11/10 06:20:19;;;;;;;0.00;0.00;;;3.80;62.70;;;;;;5014523;28;20045;-88
2021/11/10 06:22:45;;;;;;;0.00;0.00;;;3.90;62.60;;;;;;5014132;28;20514;-87
2021/11/10 06:25:12;;;;;;;0.00;0.00;;;3.90;62.50;;;;;;5013906;28;20120;-89
2021/11/10 06:27:38;;;;;;;0.00;0.00;;;3.80;62.50;;;;;;5013840;28;20022;-88
2021/11/10 06:30:06;;;;;;;0.00;0.00;;;3.90;62.50;;;;;;5013656;28;20022;-88
2021/11/10 06:32:32;;;;;;;0.00;0.00;;;4.00;62.50;;;;;;5013615;28;20132;-88
2021/11/10 06:34:57;;;;;;;0.00;0.00;;;4.10;62.40;;;;;;5013200;28;20030;-89
2021/11/10 06:37:23;;;;;;;0.00;0.00;;;4.20;62.30;;;;;;5013267;28;20096;-87
2021/11/10 06:39:49;;;;;;;0.00;0.00;;;4.20;62.10;;;;;;5013066;28;20069;-89
2021/11/10 06:42:15;;;;;;;0.00;0.00;;;4.30;62.00;;;;;;5012942;28;20029;-88
2021/11/10 06:44:41;;;;;;;0.85;0.00;;;4.40;62.00;;;;;;5012925;28;20040;-88
2021/11/10 06:47:07;;;;;;;0.00;0.00;;;4.40;61.90;;;;;;5012935;28;20153;-88
2021/11/10 06:49:33;;;;;;;0.00;0.00;;;4.50;61.80;;;;;;5013163;28;20041;-88
2021/11/10 06:51:58;;;;;;;0.00;0.00;;;4.60;61.80;;;;;;5013432;28;20034;-88
2021/11/10 06:54:25;;;;;;;0.00;0.00;;;4.80;61.60;;;;;;5016476;28;20026;-89
2021/11/10 06:56:53;;;;;;;0.00;0.00;;;4.90;61.20;;;;;;5015785;28;20113;-89
2021/11/10 06:59:19;;;;;;;0.00;0.00;;;5.00;61.00;;;;;;5017438;28;20025;-89
2021/11/10 07:01:45;;;;;;;0.00;0.00;;;5.20;60.90;;;;;;5015840;28;20132;-87
2021/11/10 07:04:10;;;;;;;0.00;0.00;;;5.30;60.60;;;;;;5023257;28;20116;-89
2021/11/10 07:06:37;;;;;;;0.00;0.00;;;5.40;60.30;;;;;;5037555;28;20033;-89
2021/11/10 07:09:06;;;;;;;0.00;0.00;;;5.50;60.20;;;;;;5037151;28;20057;-89
2021/11/10 07:11:34;;;;;;;0.00;0.00;;;5.70;60.00;;;;;;5037392;28;20025;-88
2021/11/10 07:14:01;;;;;;;0.00;0.00;;;5.90;59.80;;;;;;5037006;28;20025;-88
2021/11/10 07:16:26;;;;;;;0.00;0.00;;;6.00;59.40;;;;;;5036991;28;20025;-89
2021/11/10 07:18:52;;;;;;;0.00;0.00;;;6.20;59.20;;;;;;5035450;28;20029;-89
2021/11/10 07:21:18;;;;;;;0.00;0.00;;;6.30;58.80;;;;;;5036219;28;20528;-88
2021/11/10 07:23:44;;;;;;;0.00;0.00;;;6.50;58.50;;;;;;5036675;28;20033;-89
2021/11/10 07:26:09;;;;;;;0.00;0.00;;;6.60;58.20;;;;;;5036825;28;20541;-89
2021/11/10 07:28:35;;;;;;;0.00;0.00;;;6.70;57.90;;;;;;5036726;28;20025;-88
2021/11/10 07:31:01;;;;;;;0.00;0.00;;;6.80;57.70;;;;;;5036207;28;20061;-88
2021/11/10 07:33:27;;;;;;;0.00;0.00;;;7.10;57.50;;;;;;5036380;28;20116;-89
2021/11/10 07:35:52;;;;;;;0.00;0.00;;;7.40;57.40;;;;;;5036562;28;20021;-89
2021/11/10 07:38:24;;;;;;;0.00;0.00;;;7.90;57.30;;;;;;5036694;28;20053;-88
2021/11/10 07:40:51;;;;;;;0.00;0.00;;;8.50;57.00;;;;;;5036533;28;20081;-90
2021/11/10 07:43:17;;;;;;;0.00;0.00;;;9.10;56.70;;;;;;5029853;28;20479;-88
2021/11/10 07:45:49;;;;;;;0.00;0.00;;;9.80;56.40;;;;;;5024653;28;20025;-88
2021/11/10 07:48:15;;;;;;;0.00;0.00;;;10.60;55.90;;;;;;5024064;28;20072;-87
2021/11/10 07:50:42;;;;;;;0.00;0.00;;;11.50;55.20;;;;;;5024724;28;20114;-89
2021/11/10 07:53:08;;;;;;;0.00;0.00;;;12.40;53.70;;;;;;5024631;28;20462;-87
2021/11/10 07:55:33;;;;;;;0.00;0.00;;;13.30;52.20;;;;;;5024362;28;20071;-86
2021/11/10 07:57:59;;;;;;;0.00;0.00;;;14.30;50.30;;;;;;5025936;28;20071;-88
2021/11/10 08:00:25;;;;;;;0.00;0.00;;;15.10;48.40;;;;;;5024427;28;20053;-88
2021/11/10 08:02:51;;;;;;;0.00;0.00;;;15.80;46.50;;;;;;5023752;28;20120;-88
2021/11/10 08:05:18;;;;;;;0.00;0.00;;;16.60;44.70;;;;;;5025413;28;20030;-88
2021/11/10 08:07:43;;;;;;;0.00;0.00;;;17.30;42.70;;;;;;5023972;28;20057;-87
2021/11/10 08:10:11;;;;;;;0.00;0.00;;;18.00;40.60;;;;;;5024431;28;20480;-88
2021/11/10 08:12:37;;;;;;;0.00;0.00;;;18.40;38.80;;;;;;5025667;28;20049;-89
2021/11/10 08:15:05;;;;;;;0.00;0.00;;;19.00;37.90;;;;;;5023915;28;20101;-89
2021/11/10 08:17:31;;;;;;;0.00;0.00;;;19.50;36.90;;;;;;5024088;28;20303;-89
2021/11/10 08:19:56;;;;;;;0.00;0.00;;;20.00;36.10;;;;;;5025408;28;20018;-89
2021/11/10 08:22:22;;;;;;;0.00;0.00;;;20.30;35.40;;;;;;5032031;28;20456;-87
2021/11/10 08:24:50;;;;;;;0.00;0.00;;;20.70;34.80;;;;;;5034516;28;20105;-89
2021/11/10 08:27:16;;;;;;;0.00;0.00;;;21.00;33.70;;;;;;5029086;28;20022;-89
2021/11/10 08:29:42;;;;;;;0.00;0.00;;;21.30;33.20;;;;;;5024257;28;20458;-88
2021/11/10 08:32:08;;;;;;;0.00;0.00;;;21.60;32.70;;;;;;5024764;28;20080;-90
2021/11/10 08:34:34;;;;;;;0.00;0.00;;;21.90;32.40;;;;;;5023247;28;20030;-89
2021/11/10 08:37:00;;;;;;;0.00;0.00;;;22.30;32.00;;;;;;5024568;28;20041;-88
2021/11/10 08:39:26;;;;;;;0.00;0.00;;;22.50;31.40;;;;;;5024043;28;20077;-90
2021/11/10 08:41:52;;;;;;;0.00;0.00;;;22.80;31.20;;;;;;5022814;28;20084;-89
2021/11/10 08:44:18;;;;;;;0.00;0.00;;;23.10;30.50;;;;;;5024796;28;20055;-90
2021/11/10 08:46:44;;;;;;;0.00;0.00;;;23.30;30.00;;;;;;5023722;28;20118;-89
2021/11/10 08:49:11;;;;;;;0.00;0.00;;;23.50;30.00;;;;;;5022760;28;20529;-89
2021/11/10 08:51:39;;;;;;;0.00;0.00;;;23.70;29.70;;;;;;5025130;28;20026;-90
2021/11/10 08:54:05;;;;;;;0.00;0.00;;;23.90;29.50;;;;;;5023918;28;20022;-89
2021/11/10 08:56:32;;;;;;;0.00;0.00;;;24.10;29.30;;;;;;5022850;28;20033;-88
2021/11/10 08:59:00;;;;;;;0.00;0.00;;;24.40;29.30;;;;;;5029394;28;20104;-88
2021/11/10 09:01:26;;;;;;;0.00;0.00;;;24.60;29.30;;;;;;5023906;28;20026;-90
2021/11/10 09:03:51;;;;;;;0.00;0.00;;;24.70;29.10;;;;;;5023937;28;20037;-88
2021/11/10 09:06:17;;;;;;;0.00;0.00;;;24.90;28.90;;;;;;5024934;28;20032;-88
2021/11/10 09:08:43;;;;;;;0.00;0.00;;;25.10;28.60;;;;;;5023593;28;20022;-88
2021/11/10 09:11:09;;;;;;;0.00;0.00;;;25.20;28.30;;;;;;5023390;28;20029;-88
2021/11/10 09:13:34;;;;;;;0.00;0.00;;;25.40;28.10;;;;;;5024974;28;20438;-87
2021/11/10 09:16:00;;;;;;;0.00;0.00;;;25.60;27.90;;;;;;5027264;28;20116;-87
2021/11/10 09:18:26;;;;;;;0.00;0.00;;;25.70;27.70;;;;;;5028702;28;20022;-89
2021/11/10 09:20:52;;;;;;;0.00;0.00;;;25.90;27.80;;;;;;5022147;28;20057;-89
2021/11/10 09:23:20;;;;;;;0.00;0.00;;;26.00;27.70;;;;;;5013685;28;20037;-89
2021/11/10 09:25:48;;;;;;;0.00;0.00;;;26.20;27.60;;;;;;5014271;28;20030;-89
2021/11/10 09:28:15;;;;;;;0.00;0.00;;;26.40;27.50;;;;;;5014097;28;20026;-89
2021/11/10 09:30:43;;;;;;;0.00;0.00;;;26.70;27.20;;;;;;5014293;28;20026;-89
2021/11/10 09:33:11;;;;;;;0.00;0.00;;;27.00;27.10;;;;;;5026135;28;20041;-89
2021/11/10 09:35:38;;;;;;;0.00;0.00;;;27.00;26.90;;;;;;5033965;28;20110;-89
2021/11/10 09:38:05;;;;;;;0.00;0.00;;;27.20;26.70;;;;;;5033800;28;20023;-88
2021/11/10 09:40:34;;;;;;;0.00;0.00;;;27.50;26.70;;;;;;5033321;28;20053;-89
2021/11/10 09:43:01;;;;;;;0.00;0.00;;;27.70;26.50;;;;;;5033851;28;20472;-89
2021/11/10 09:45:28;;;;;;;0.00;0.00;;;27.80;26.40;;;;;;5033752;28;20409;-88
2021/11/10 09:47:55;;;;;;;0.00;0.00;;;28.10;26.40;;;;;;5024904;28;20041;-89
2021/11/10 09:50:26;;;;;;;0.00;0.00;;;28.20;26.20;;;;;;5014124;28;20053;-88
2021/11/10 09:52:53;;;;;;;0.00;0.00;;;28.40;25.90;;;;;;5013614;28;20036;-89
2021/11/10 09:55:23;;;;;;;0.00;0.00;;;28.50;25.80;;;;;;5013410;28;20042;-88
2021/11/10 09:57:50;;;;;;;0.00;0.00;;;28.60;25.70;;;;;;5013316;28;20030;-87
2021/11/10 10:00:19;;;;;;;0.00;0.00;;;28.80;25.80;;;;;;5013727;28;20036;-89
2021/11/10 10:02:46;;;;;;;0.00;0.00;;;29.00;25.80;;;;;;5020352;28;20116;-88
2021/11/10 10:05:14;;;;;;;0.00;0.00;;;29.20;25.80;;;;;;5033649;28;20116;-89
2021/11/10 10:07:41;;;;;;;0.00;0.00;;;29.50;25.70;;;;;;5034410;28;20441;-89
2021/11/10 10:10:07;;;;;;;0.00;0.00;;;29.70;25.70;;;;;;5032902;28;20026;-88
2021/11/10 10:12:33;;;;;;;0.00;0.00;;;29.90;25.70;;;;;;5032712;28;20044;-90
2021/11/10 10:15:00;;;;;;;0.00;0.00;;;30.00;25.60;;;;;;5033020;28;20028;-89
2021/11/10 10:17:39;;;;;;;0.00;0.00;;;30.10;25.50;;;;;;5030221;28;20045;-88
2021/11/10 10:20:22;;;;;;;0.00;0.00;;;30.30;25.20;;;;;;5013311;28;20029;-88
2021/11/10 10:22:49;;;;;;;0.00;0.00;;;30.50;25.20;;;;;;5033151;28;20422;-89
2021/11/10 10:25:15;;;;;;;0.00;0.00;;;30.70;25.10;;;;;;5033274;28;20041;-89
2021/11/10 10:27:53;;;;;;;0.00;0.00;;;30.80;24.90;;;;;;5034099;28;20025;-88
2021/11/10 10:30:39;;;;;;;0.00;0.00;;;30.80;24.40;;;;;;5035879;28;20462;-88
2021/11/10 10:33:24;;;;;;;0.00;0.00;;;30.90;24.40;;;;;;5037421;28;20034;-87
2021/11/10 10:35:54;;;;;;;0.00;0.00;;;31.00;24.70;;;;;;5037041;28;20025;-87
2021/11/10 10:38:26;;;;;;;0.00;0.00;;;31.10;24.70;;;;;;5037492;28;20108;-87
2021/11/10 10:40:56;;;;;;;0.00;0.00;;;31.30;24.50;;;;;;5053083;28;20507;-87
2021/11/10 10:43:23;;;;;;;0.00;0.00;;;31.50;24.90;;;;;;5052613;28;20108;-88
2021/11/10 10:45:58;;;;;;;0.00;0.00;;;31.50;24.10;;;;;;5052346;28;20080;-87
2021/11/10 10:48:27;;;;;;;0.00;0.00;;;31.40;23.90;;;;;;5037419;28;20025;-87
2021/11/10 10:51:04;;;;;;;0.00;0.00;;;31.50;23.90;;;;;;5036407;28;20048;-87
2021/11/10 10:53:32;;;;;;;0.00;0.00;;;31.50;23.90;;;;;;5033528;28;20038;-88
2021/11/10 10:55:59;;;;;;;0.00;0.00;;;31.50;24.00;;;;;;5037249;28;20029;-87
2021/11/10 10:58:33;;;;;;;0.00;0.00;;;31.50;24.10;;;;;;5037514;28;20053;-86
2021/11/10 11:01:00;;;;;;;0.00;0.00;;;31.70;24.10;;;;;;5016077;28;20057;-87
2021/11/10 11:03:28;;;;;;;0.00;0.00;;;31.80;24.10;;;;;;5016980;28;20033;-86
2021/11/10 11:05:54;;;;;;;0.00;0.00;;;32.00;23.90;;;;;;5016684;28;20026;-87
2021/11/10 11:08:33;;;;;;;0.00;0.00;;;32.00;23.80;;;;;;5028263;28;20521;-88
2021/11/10 11:11:01;;;;;;;0.00;0.00;;;32.00;23.50;;;;;;5027095;28;20022;-87
2021/11/10 11:13:50;;;;;;;0.00;0.00;;;32.00;23.50;;;;;;5022604;28;20445;-86
2021/11/10 11:16:21;;;;;;;0.00;0.00;;;32.10;23.30;;;;;;5032580;28;20474;-87
2021/11/10 11:18:48;;;;;;;0.00;0.00;;;32.20;23.40;;;;;;5017433;28;20034;-87
2021/11/10 11:21:27;;;;;;;0.00;0.00;;;32.30;23.20;;;;;;5016585;28;20037;-87
2021/11/10 11:23:54;;;;;;;0.00;0.00;;;32.10;22.60;;;;;;5016724;28;20388;-86
2021/11/10 11:26:36;;;;;;;0.00;0.00;;;32.00;22.80;;;;;;5046573;28;20116;-87
2021/11/10 11:29:25;;;;;;;0.00;0.00;;;32.00;22.80;;;;;;5036266;28;20025;-85
2021/11/10 11:31:53;;;;;;;0.00;0.00;;;32.00;22.90;;;;;;5029168;28;20037;-86
2021/11/10 11:34:21;;;;;;;0.00;0.00;;;32.10;23.10;;;;;;5037728;28;20084;-87
2021/11/10 11:36:53;;;;;;;0.00;0.00;;;32.10;23.20;;;;;;5035220;28;20481;-87
2021/11/10 11:39:21;;;;;;;0.00;0.00;;;32.10;23.30;;;;;;5035444;28;20045;-87
2021/11/10 11:41:48;;;;;;;0.00;0.00;;;32.00;23.30;;;;;;5018006;28;20472;-86
2021/11/10 11:44:17;;;;;;;0.00;0.00;;;32.00;23.30;;;;;;5015533;28;20095;-87
2021/11/10 11:46:45;;;;;;;0.00;0.00;;;31.90;23.30;;;;;;5016149;28;20030;-86
2021/11/10 11:49:15;;;;;;;0.00;0.00;;;31.80;23.50;;;;;;5016562;28;20030;-87
2021/11/10 11:51:43;;;;;;;0.00;0.00;;;31.70;23.60;;;;;;5016121;28;20029;-85
2021/11/10 11:54:09;;;;;;;0.00;0.00;;;31.60;24.10;;;;;;5016187;28;20065;-87
2021/11/10 11:56:36;;;;;;;0.00;0.00;;;31.50;23.70;;;;;;5016808;28;20478;-87
2021/11/10 11:59:03;;;;;;;0.00;0.00;;;31.30;23.70;;;;;;5026669;28;20036;-86
2021/11/10 12:01:31;;;;;;;0.00;0.00;;;31.20;23.70;;;;;;5025600;28;20026;-86
2021/11/10 12:04:01;;;;;;;0.00;0.00;;;31.10;23.70;;;;;;5023350;28;20030;-87
2021/11/10 12:06:29;;;;;;;0.00;0.00;;;31.00;23.80;;;;;;5023525;28;20108;-86
2021/11/10 12:08:57;;;;;;;0.00;0.00;;;30.90;23.70;;;;;;5033248;28;20033;-87
2021/11/10 12:11:22;;;;;;;0.00;0.00;;;30.70;23.70;;;;;;5034704;28;20034;-86
2021/11/10 12:14:10;;;;;;;0.00;0.00;;;30.50;23.80;;;;;;5034786;28;20040;-86
2021/11/10 12:16:48;;;;;;;0.00;0.00;;;30.30;23.90;;;;;;5026805;28;20022;-89
2021/11/10 12:19:28;;;;;;;0.00;0.00;;;29.80;23.90;;;;;;5015269;28;20441;-87
2021/11/10 12:22:18;;;;;;;0.00;0.00;;;29.50;23.80;;;;;;5014365;28;20033;-86
2021/11/10 12:24:51;;;;;;;0.00;0.00;;;29.40;23.90;;;;;;5014678;28;20026;-86
2021/11/10 12:27:23;;;;;;;;;;;29.50;24.10;;;;;;5028646;28;20493;-86
2021/11/10 12:33:32;;;;;;;0.00;0.00;;;29.70;23.70;;;;;;5034644;28;20080;-87
2021/11/10 12:36:00;;;;;;;0.00;0.00;;;29.80;23.60;;;;;;5033105;28;20033;-86
2021/11/10 12:38:28;;;;;;;0.00;0.00;;;29.90;23.50;;;;;;5034648;28;20032;-86
2021/11/10 12:41:03;;;;;;;0.00;0.00;;;29.80;23.40;;;;;;5034143;28;20409;-86
2021/11/10 12:43:40;;;;;;;0.00;0.00;;;29.80;23.00;;;;;;5034925;28;20521;-86
2021/11/10 12:46:12;;;;;;;0.00;0.00;;;29.70;22.70;;;;;;5049874;28;20096;-86
2021/11/10 12:48:43;;;;;;;0.00;0.00;;;29.60;22.80;;;;;;5034840;28;20092;-86
2021/11/10 12:51:22;;;;;;;0.00;0.00;;;29.50;22.60;;;;;;5033698;28;20112;-86
2021/11/10 12:53:54;;;;;;;0.00;0.00;;;29.50;22.60;;;;;;5034343;28;20108;-86
2021/11/10 12:56:41;;;;;;;0.20;0.10;;;29.30;22.60;;;;;;5034856;28;20022;-88
2021/11/10 12:59:09;;;;;;;0.00;0.00;;;29.10;22.80;;;;;;5034726;28;20021;-86